sensor_id;sensor_type;location;lat;lon;timestamp;P1;durP1;ratioP1;P2;durP2;ratioP2
69161;SDS011;56269;51.738;21.652;2024-01-27T00:02:17;14.65;;;5.30;;
69161;SDS011;56269;51.738;21.652;2024-01-27T00:04:43;12.80;;;5.07;;
69161;SDS011;56269;51.738;21.652;2024-01-27T00:07:10;12.18;;;5.40;;
69161;SDS011;56269;51.738;21.652;2024-01-27T00:09:36;15.40;;;6.80;;
69161;SDS011;56269;51.738;21.652;2024-01-27T00:12:03;13.68;;;5.55;;
69161;SDS011;56269;51.738;21.652;2024-01-27T00:14:30;11.35;;;4.72;;
69161;SDS011;56269;51.738;21.652;2024-01-27T00:16:58;13.32;;;6.38;;
69161;SDS011;56269;51.738;21.652;2024-01-27T00:19:25;13.02;;;5.72;;
69161;SDS011;56269;51.738;21.652;2024-01-27T00:21:52;17.03;;;6.50;;
69161;SDS011;56269;51.738;21.652;2024-01-27T00:24:20;17.30;;;7.15;;
69161;SDS011;56269;51.738;21.652;2024-01-27T00:26:48;11.98;;;5.47;;
69161;SDS011;56269;51.738;21.652;2024-01-27T00:29:16;10.65;;;3.88;;
69161;SDS011;56269;51.738;21.652;2024-01-27T00:31:43;12.48;;;4.07;;
69161;SDS011;56269;51.738;21.652;2024-01-27T00:34:10;10.17;;;3.93;;
69161;SDS011;56269;51.738;21.652;2024-01-27T00:36:39;10.93;;;3.25;;
69161;SDS011;56269;51.738;21.652;2024-01-27T00:39:08;15.88;;;5.82;;
69161;SDS011;56269;51.738;21.652;2024-01-27T00:41:36;10.93;;;5.18;;
69161;SDS011;56269;51.738;21.652;2024-01-27T00:44:04;6.22;;;2.83;;
69161;SDS011;56269;51.738;21.652;2024-01-27T00:46:31;14.67;;;4.73;;
69161;SDS011;56269;51.738;21.652;2024-01-27T00:48:58;11.27;;;5.05;;
69161;SDS011;56269;51.738;21.652;2024-01-27T00:51:25;9.07;;;3.15;;
69161;SDS011;56269;51.738;21.652;2024-01-27T00:53:53;7.45;;;4.05;;
69161;SDS011;56269;51.738;21.652;2024-01-27T00:56:21;9.85;;;4.32;;
69161;SDS011;56269;51.738;21.652;2024-01-27T00:58:48;9.67;;;3.97;;
69161;SDS011;56269;51.738;21.652;2024-01-27T01:01:16;9.93;;;3.95;;
69161;SDS011;56269;51.738;21.652;2024-01-27T01:03:43;5.50;;;2.42;;
69161;SDS011;56269;51.738;21.652;2024-01-27T01:06:10;7.47;;;1.65;;
69161;SDS011;56269;51.738;21.652;2024-01-27T01:08:38;9.15;;;2.88;;
69161;SDS011;56269;51.738;21.652;2024-01-27T01:11:05;3.93;;;1.50;;
69161;SDS011;56269;51.738;21.652;2024-01-27T01:13:31;8.75;;;2.17;;
69161;SDS011;56269;51.738;21.652;2024-01-27T01:15:57;4.63;;;1.63;;
69161;SDS011;56269;51.738;21.652;2024-01-27T01:18:23;6.53;;;1.65;;
69161;SDS011;56269;51.738;21.652;2024-01-27T01:20:49;3.80;;;1.33;;
69161;SDS011;56269;51.738;21.652;2024-01-27T01:23:15;6.50;;;1.63;;
69161;SDS011;56269;51.738;21.652;2024-01-27T01:25:41;8.32;;;1.92;;
69161;SDS011;56269;51.738;21.652;2024-01-27T01:28:08;5.13;;;1.50;;
69161;SDS011;56269;51.738;21.652;2024-01-27T01:30:34;7.38;;;1.50;;
69161;SDS011;56269;51.738;21.652;2024-01-27T01:33:01;4.27;;;1.10;;
69161;SDS011;56269;51.738;21.652;2024-01-27T01:35:28;2.40;;;0.80;;
69161;SDS011;56269;51.738;21.652;2024-01-27T01:37:54;2.22;;;0.98;;
69161;SDS011;56269;51.738;21.652;2024-01-27T01:40:20;2.17;;;0.95;;
69161;SDS011;56269;51.738;21.652;2024-01-27T01:42:52;3.30;;;1.10;;
69161;SDS011;56269;51.738;21.652;2024-01-27T01:45:18;2.20;;;0.88;;
69161;SDS011;56269;51.738;21.652;2024-01-27T01:47:45;5.03;;;1.35;;
69161;SDS011;56269;51.738;21.652;2024-01-27T01:50:12;5.28;;;0.98;;
69161;SDS011;56269;51.738;21.652;2024-01-27T01:52:38;5.05;;;1.10;;
69161;SDS011;56269;51.738;21.652;2024-01-27T01:55:05;9.63;;;1.27;;
69161;SDS011;56269;51.738;21.652;2024-01-27T01:57:31;2.45;;;0.88;;
69161;SDS011;56269;51.738;21.652;2024-01-27T01:59:59;7.45;;;2.03;;
69161;SDS011;56269;51.738;21.652;2024-01-27T02:02:25;4.57;;;1.15;;
69161;SDS011;56269;51.738;21.652;2024-01-27T02:04:52;4.82;;;1.40;;
69161;SDS011;56269;51.738;21.652;2024-01-27T02:07:18;6.33;;;1.60;;
69161;SDS011;56269;51.738;21.652;2024-01-27T02:09:44;3.55;;;1.00;;
69161;SDS011;56269;51.738;21.652;2024-01-27T02:12:10;1.25;;;0.70;;
69161;SDS011;56269;51.738;21.652;2024-01-27T02:14:36;5.82;;;1.33;;
69161;SDS011;56269;51.738;21.652;2024-01-27T02:17:02;3.25;;;1.08;;
69161;SDS011;56269;51.738;21.652;2024-01-27T02:19:30;3.87;;;1.10;;
69161;SDS011;56269;51.738;21.652;2024-01-27T02:21:56;1.55;;;0.80;;
69161;SDS011;56269;51.738;21.652;2024-01-27T02:24:22;2.85;;;0.95;;
69161;SDS011;56269;51.738;21.652;2024-01-27T02:26:48;5.35;;;1.30;;
69161;SDS011;56269;51.738;21.652;2024-01-27T02:29:14;3.30;;;1.10;;
69161;SDS011;56269;51.738;21.652;2024-01-27T02:31:40;2.93;;;1.00;;
69161;SDS011;56269;51.738;21.652;2024-01-27T02:34:07;8.02;;;1.50;;
69161;SDS011;56269;51.738;21.652;2024-01-27T02:36:33;3.78;;;0.80;;
69161;SDS011;56269;51.738;21.652;2024-01-27T02:39:00;3.25;;;1.15;;
69161;SDS011;56269;51.738;21.652;2024-01-27T02:41:25;2.40;;;0.80;;
69161;SDS011;56269;51.738;21.652;2024-01-27T02:43:52;1.70;;;0.80;;
69161;SDS011;56269;51.738;21.652;2024-01-27T02:46:18;1.77;;;0.80;;
69161;SDS011;56269;51.738;21.652;2024-01-27T02:48:45;4.18;;;1.30;;
69161;SDS011;56269;51.738;21.652;2024-01-27T02:51:11;10.20;;;1.60;;
69161;SDS011;56269;51.738;21.652;2024-01-27T02:53:37;7.43;;;1.67;;
69161;SDS011;56269;51.738;21.652;2024-01-27T02:56:06;7.45;;;1.60;;
69161;SDS011;56269;51.738;21.652;2024-01-27T02:58:34;2.58;;;0.88;;
69161;SDS011;56269;51.738;21.652;2024-01-27T03:01:00;3.57;;;1.50;;
69161;SDS011;56269;51.738;21.652;2024-01-27T03:03:26;3.63;;;0.90;;
69161;SDS011;56269;51.738;21.652;2024-01-27T03:05:54;1.40;;;0.80;;
69161;SDS011;56269;51.738;21.652;2024-01-27T03:08:20;4.95;;;2.03;;
69161;SDS011;56269;51.738;21.652;2024-01-27T03:10:46;7.80;;;1.70;;
69161;SDS011;56269;51.738;21.652;2024-01-27T03:13:13;5.10;;;0.97;;
69161;SDS011;56269;51.738;21.652;2024-01-27T03:15:39;7.32;;;1.65;;
69161;SDS011;56269;51.738;21.652;2024-01-27T03:18:05;6.47;;;1.60;;
69161;SDS011;56269;51.738;21.652;2024-01-27T03:20:31;7.85;;;1.80;;
69161;SDS011;56269;51.738;21.652;2024-01-27T03:22:57;8.02;;;1.50;;
69161;SDS011;56269;51.738;21.652;2024-01-27T03:25:23;3.53;;;1.23;;
69161;SDS011;56269;51.738;21.652;2024-01-27T03:27:52;3.53;;;1.20;;
69161;SDS011;56269;51.738;21.652;2024-01-27T03:30:18;8.57;;;1.90;;
69161;SDS011;56269;51.738;21.652;2024-01-27T03:32:45;6.38;;;1.80;;
69161;SDS011;56269;51.738;21.652;2024-01-27T03:35:11;4.30;;;1.20;;
69161;SDS011;56269;51.738;21.652;2024-01-27T03:37:37;6.20;;;1.20;;
69161;SDS011;56269;51.738;21.652;2024-01-27T03:40:03;6.15;;;1.40;;
69161;SDS011;56269;51.738;21.652;2024-01-27T03:42:30;4.10;;;1.17;;
69161;SDS011;56269;51.738;21.652;2024-01-27T03:44:56;2.08;;;1.05;;
69161;SDS011;56269;51.738;21.652;2024-01-27T03:47:22;5.60;;;1.40;;
69161;SDS011;56269;51.738;21.652;2024-01-27T03:49:48;11.13;;;1.80;;
69161;SDS011;56269;51.738;21.652;2024-01-27T03:52:14;8.73;;;2.10;;
69161;SDS011;56269;51.738;21.652;2024-01-27T03:54:40;6.28;;;1.45;;
69161;SDS011;56269;51.738;21.652;2024-01-27T03:57:06;6.27;;;1.47;;
69161;SDS011;56269;51.738;21.652;2024-01-27T03:59:32;4.25;;;1.60;;
69161;SDS011;56269;51.738;21.652;2024-01-27T04:01:59;3.17;;;1.25;;
69161;SDS011;56269;51.738;21.652;2024-01-27T04:04:24;2.38;;;0.82;;
69161;SDS011;56269;51.738;21.652;2024-01-27T04:06:51;3.33;;;1.07;;
69161;SDS011;56269;51.738;21.652;2024-01-27T04:09:17;5.70;;;1.30;;
69161;SDS011;56269;51.738;21.652;2024-01-27T04:11:44;7.53;;;1.65;;
69161;SDS011;56269;51.738;21.652;2024-01-27T04:14:10;5.60;;;1.27;;
69161;SDS011;56269;51.738;21.652;2024-01-27T04:16:36;8.57;;;1.60;;
69161;SDS011;56269;51.738;21.652;2024-01-27T04:19:02;1.23;;;0.80;;
69161;SDS011;56269;51.738;21.652;2024-01-27T04:21:30;4.20;;;1.55;;
69161;SDS011;56269;51.738;21.652;2024-01-27T04:23:57;3.65;;;1.23;;
69161;SDS011;56269;51.738;21.652;2024-01-27T04:26:23;4.03;;;0.80;;
69161;SDS011;56269;51.738;21.652;2024-01-27T04:28:49;2.63;;;0.80;;
69161;SDS011;56269;51.738;21.652;2024-01-27T04:31:15;4.57;;;1.17;;
69161;SDS011;56269;51.738;21.652;2024-01-27T04:33:41;1.65;;;0.95;;
69161;SDS011;56269;51.738;21.652;2024-01-27T04:36:08;4.95;;;1.00;;
69161;SDS011;56269;51.738;21.652;2024-01-27T04:38:35;5.53;;;1.60;;
69161;SDS011;56269;51.738;21.652;2024-01-27T04:41:01;4.67;;;1.30;;
69161;SDS011;56269;51.738;21.652;2024-01-27T04:43:28;5.63;;;1.45;;
69161;SDS011;56269;51.738;21.652;2024-01-27T04:45:54;6.35;;;1.02;;
69161;SDS011;56269;51.738;21.652;2024-01-27T04:48:20;8.98;;;1.48;;
69161;SDS011;56269;51.738;21.652;2024-01-27T04:50:47;3.63;;;1.17;;
69161;SDS011;56269;51.738;21.652;2024-01-27T04:53:13;2.27;;;0.90;;
69161;SDS011;56269;51.738;21.652;2024-01-27T04:55:40;4.68;;;1.40;;
69161;SDS011;56269;51.738;21.652;2024-01-27T04:58:06;3.58;;;1.40;;
69161;SDS011;56269;51.738;21.652;2024-01-27T05:00:33;3.75;;;1.25;;
69161;SDS011;56269;51.738;21.652;2024-01-27T05:02:59;9.47;;;1.97;;
69161;SDS011;56269;51.738;21.652;2024-01-27T05:05:29;5.33;;;1.60;;
69161;SDS011;56269;51.738;21.652;2024-01-27T05:07:55;11.32;;;1.73;;
69161;SDS011;56269;51.738;21.652;2024-01-27T05:10:21;4.88;;;1.48;;
69161;SDS011;56269;51.738;21.652;2024-01-27T05:12:47;9.88;;;1.98;;
69161;SDS011;56269;51.738;21.652;2024-01-27T05:15:14;6.63;;;1.73;;
69161;SDS011;56269;51.738;21.652;2024-01-27T05:17:40;5.38;;;1.13;;
69161;SDS011;56269;51.738;21.652;2024-01-27T05:20:06;10.98;;;1.80;;
69161;SDS011;56269;51.738;21.652;2024-01-27T05:22:33;3.17;;;1.02;;
69161;SDS011;56269;51.738;21.652;2024-01-27T05:24:59;3.88;;;1.60;;
69161;SDS011;56269;51.738;21.652;2024-01-27T05:27:25;2.13;;;0.80;;
69161;SDS011;56269;51.738;21.652;2024-01-27T05:29:51;4.03;;;1.48;;
69161;SDS011;56269;51.738;21.652;2024-01-27T05:32:17;6.53;;;1.80;;
69161;SDS011;56269;51.738;21.652;2024-01-27T05:34:44;3.60;;;0.98;;
69161;SDS011;56269;51.738;21.652;2024-01-27T05:37:12;1.23;;;0.73;;
69161;SDS011;56269;51.738;21.652;2024-01-27T05:39:39;0.83;;;0.57;;
69161;SDS011;56269;51.738;21.652;2024-01-27T05:42:05;4.28;;;1.42;;
69161;SDS011;56269;51.738;21.652;2024-01-27T05:44:31;1.52;;;0.95;;
69161;SDS011;56269;51.738;21.652;2024-01-27T05:46:57;4.43;;;1.13;;
69161;SDS011;56269;51.738;21.652;2024-01-27T05:49:23;6.47;;;2.03;;
69161;SDS011;56269;51.738;21.652;2024-01-27T05:51:49;3.28;;;1.50;;
69161;SDS011;56269;51.738;21.652;2024-01-27T05:54:16;3.95;;;1.80;;
69161;SDS011;56269;51.738;21.652;2024-01-27T05:56:42;3.85;;;0.90;;
69161;SDS011;56269;51.738;21.652;2024-01-27T05:59:09;8.75;;;1.85;;
69161;SDS011;56269;51.738;21.652;2024-01-27T06:01:35;3.57;;;1.27;;
69161;SDS011;56269;51.738;21.652;2024-01-27T06:04:01;1.77;;;0.82;;
69161;SDS011;56269;51.738;21.652;2024-01-27T06:06:27;4.47;;;1.30;;
69161;SDS011;56269;51.738;21.652;2024-01-27T06:08:54;2.72;;;0.90;;
69161;SDS011;56269;51.738;21.652;2024-01-27T06:11:25;5.83;;;1.53;;
69161;SDS011;56269;51.738;21.652;2024-01-27T06:13:52;8.02;;;1.63;;
69161;SDS011;56269;51.738;21.652;2024-01-27T06:16:18;3.45;;;1.00;;
69161;SDS011;56269;51.738;21.652;2024-01-27T06:18:49;7.75;;;1.50;;
69161;SDS011;56269;51.738;21.652;2024-01-27T06:21:15;7.10;;;1.55;;
69161;SDS011;56269;51.738;21.652;2024-01-27T06:23:41;2.10;;;0.87;;
69161;SDS011;56269;51.738;21.652;2024-01-27T06:26:07;2.25;;;0.95;;
69161;SDS011;56269;51.738;21.652;2024-01-27T06:28:35;4.70;;;1.20;;
69161;SDS011;56269;51.738;21.652;2024-01-27T06:31:02;5.72;;;1.20;;
69161;SDS011;56269;51.738;21.652;2024-01-27T06:33:29;3.47;;;1.27;;
69161;SDS011;56269;51.738;21.652;2024-01-27T06:35:55;1.55;;;0.80;;
69161;SDS011;56269;51.738;21.652;2024-01-27T06:38:22;2.13;;;1.00;;
69161;SDS011;56269;51.738;21.652;2024-01-27T06:40:48;10.63;;;2.10;;
69161;SDS011;56269;51.738;21.652;2024-01-27T06:43:15;2.55;;;1.02;;
69161;SDS011;56269;51.738;21.652;2024-01-27T06:45:41;2.80;;;1.33;;
69161;SDS011;56269;51.738;21.652;2024-01-27T06:48:07;0.93;;;0.63;;
69161;SDS011;56269;51.738;21.652;2024-01-27T06:50:33;1.67;;;0.70;;
69161;SDS011;56269;51.738;21.652;2024-01-27T06:53:00;1.33;;;0.60;;
69161;SDS011;56269;51.738;21.652;2024-01-27T06:55:27;1.50;;;0.70;;
69161;SDS011;56269;51.738;21.652;2024-01-27T06:57:53;2.92;;;1.10;;
69161;SDS011;56269;51.738;21.652;2024-01-27T07:00:19;1.83;;;0.73;;
69161;SDS011;56269;51.738;21.652;2024-01-27T07:02:46;5.10;;;1.02;;
69161;SDS011;56269;51.738;21.652;2024-01-27T07:05:12;5.28;;;1.38;;
69161;SDS011;56269;51.738;21.652;2024-01-27T07:07:40;2.13;;;0.90;;
69161;SDS011;56269;51.738;21.652;2024-01-27T07:10:07;7.10;;;1.83;;
69161;SDS011;56269;51.738;21.652;2024-01-27T07:12:33;1.85;;;1.00;;
69161;SDS011;56269;51.738;21.652;2024-01-27T07:15:00;5.03;;;2.22;;
69161;SDS011;56269;51.738;21.652;2024-01-27T07:17:26;3.53;;;1.23;;
69161;SDS011;56269;51.738;21.652;2024-01-27T07:19:53;2.90;;;0.80;;
69161;SDS011;56269;51.738;21.652;2024-01-27T07:22:19;3.95;;;1.70;;
69161;SDS011;56269;51.738;21.652;2024-01-27T07:24:47;3.75;;;1.35;;
69161;SDS011;56269;51.738;21.652;2024-01-27T07:27:17;9.98;;;1.80;;
69161;SDS011;56269;51.738;21.652;2024-01-27T07:29:44;6.15;;;1.40;;
69161;SDS011;56269;51.738;21.652;2024-01-27T07:32:10;3.37;;;1.63;;
69161;SDS011;56269;51.738;21.652;2024-01-27T07:34:44;10.10;;;2.38;;
69161;SDS011;56269;51.738;21.652;2024-01-27T07:37:11;4.43;;;1.42;;
69161;SDS011;56269;51.738;21.652;2024-01-27T07:39:37;4.32;;;1.45;;
69161;SDS011;56269;51.738;21.652;2024-01-27T07:42:03;4.90;;;1.35;;
69161;SDS011;56269;51.738;21.652;2024-01-27T07:44:29;10.10;;;2.37;;
69161;SDS011;56269;51.738;21.652;2024-01-27T07:46:55;2.70;;;1.10;;
69161;SDS011;56269;51.738;21.652;2024-01-27T07:49:21;2.13;;;0.98;;
69161;SDS011;56269;51.738;21.652;2024-01-27T07:51:48;5.28;;;1.90;;
69161;SDS011;56269;51.738;21.652;2024-01-27T07:54:14;5.70;;;1.80;;
69161;SDS011;56269;51.738;21.652;2024-01-27T07:56:40;11.03;;;1.77;;
69161;SDS011;56269;51.738;21.652;2024-01-27T07:59:06;4.47;;;1.75;;
69161;SDS011;56269;51.738;21.652;2024-01-27T08:01:39;11.60;;;1.98;;
69161;SDS011;56269;51.738;21.652;2024-01-27T08:04:06;6.70;;;2.03;;
69161;SDS011;56269;51.738;21.652;2024-01-27T08:06:32;4.85;;;1.30;;
69161;SDS011;56269;51.738;21.652;2024-01-27T08:08:58;6.10;;;1.63;;
69161;SDS011;56269;51.738;21.652;2024-01-27T08:11:25;13.05;;;2.55;;
69161;SDS011;56269;51.738;21.652;2024-01-27T08:13:51;4.07;;;1.10;;
69161;SDS011;56269;51.738;21.652;2024-01-27T08:16:18;5.25;;;1.40;;
69161;SDS011;56269;51.738;21.652;2024-01-27T08:18:44;3.70;;;1.50;;
69161;SDS011;56269;51.738;21.652;2024-01-27T08:21:11;5.68;;;1.30;;
69161;SDS011;56269;51.738;21.652;2024-01-27T08:23:39;6.05;;;1.63;;
69161;SDS011;56269;51.738;21.652;2024-01-27T08:26:07;6.30;;;1.98;;
69161;SDS011;56269;51.738;21.652;2024-01-27T08:28:33;4.40;;;1.67;;
69161;SDS011;56269;51.738;21.652;2024-01-27T08:30:59;5.47;;;1.60;;
69161;SDS011;56269;51.738;21.652;2024-01-27T08:33:27;4.75;;;1.80;;
69161;SDS011;56269;51.738;21.652;2024-01-27T08:35:53;4.75;;;1.48;;
69161;SDS011;56269;51.738;21.652;2024-01-27T08:38:19;1.33;;;0.80;;
69161;SDS011;56269;51.738;21.652;2024-01-27T08:40:45;9.03;;;2.80;;
69161;SDS011;56269;51.738;21.652;2024-01-27T08:43:12;7.77;;;1.50;;
69161;SDS011;56269;51.738;21.652;2024-01-27T08:45:38;4.03;;;1.40;;
69161;SDS011;56269;51.738;21.652;2024-01-27T08:48:05;2.33;;;1.13;;
69161;SDS011;56269;51.738;21.652;2024-01-27T08:50:31;8.35;;;2.20;;
69161;SDS011;56269;51.738;21.652;2024-01-27T08:52:57;5.53;;;2.00;;
69161;SDS011;56269;51.738;21.652;2024-01-27T08:55:24;2.37;;;1.27;;
69161;SDS011;56269;51.738;21.652;2024-01-27T08:57:50;4.28;;;1.70;;
69161;SDS011;56269;51.738;21.652;2024-01-27T09:00:17;3.72;;;1.48;;
69161;SDS011;56269;51.738;21.652;2024-01-27T09:02:44;3.60;;;1.55;;
69161;SDS011;56269;51.738;21.652;2024-01-27T09:05:10;3.13;;;1.02;;
69161;SDS011;56269;51.738;21.652;2024-01-27T09:07:36;10.37;;;2.53;;
69161;SDS011;56269;51.738;21.652;2024-01-27T09:10:03;6.30;;;1.80;;
69161;SDS011;56269;51.738;21.652;2024-01-27T09:12:29;5.43;;;1.88;;
69161;SDS011;56269;51.738;21.652;2024-01-27T09:14:55;4.40;;;1.67;;
69161;SDS011;56269;51.738;21.652;2024-01-27T09:17:21;3.47;;;1.57;;
69161;SDS011;56269;51.738;21.652;2024-01-27T09:19:48;8.88;;;2.55;;
69161;SDS011;56269;51.738;21.652;2024-01-27T09:22:14;4.35;;;1.98;;
69161;SDS011;56269;51.738;21.652;2024-01-27T09:24:40;4.47;;;1.55;;
69161;SDS011;56269;51.738;21.652;2024-01-27T09:27:07;8.07;;;2.33;;
69161;SDS011;56269;51.738;21.652;2024-01-27T09:29:33;13.70;;;1.97;;
69161;SDS011;56269;51.738;21.652;2024-01-27T09:31:59;5.68;;;1.70;;
69161;SDS011;56269;51.738;21.652;2024-01-27T09:34:25;3.83;;;1.20;;
69161;SDS011;56269;51.738;21.652;2024-01-27T09:36:53;3.65;;;1.20;;
69161;SDS011;56269;51.738;21.652;2024-01-27T09:39:19;2.63;;;1.13;;
69161;SDS011;56269;51.738;21.652;2024-01-27T09:41:45;8.23;;;1.47;;
69161;SDS011;56269;51.738;21.652;2024-01-27T09:44:14;2.25;;;1.02;;
69161;SDS011;56269;51.738;21.652;2024-01-27T09:46:44;2.90;;;1.55;;
69161;SDS011;56269;51.738;21.652;2024-01-27T09:49:13;1.90;;;0.90;;
69161;SDS011;56269;51.738;21.652;2024-01-27T09:51:43;3.15;;;1.40;;
69161;SDS011;56269;51.738;21.652;2024-01-27T09:54:09;2.13;;;0.83;;
69161;SDS011;56269;51.738;21.652;2024-01-27T09:56:35;8.10;;;1.52;;
69161;SDS011;56269;51.738;21.652;2024-01-27T09:59:01;3.63;;;0.93;;
69161;SDS011;56269;51.738;21.652;2024-01-27T10:01:28;2.63;;;1.10;;
69161;SDS011;56269;51.738;21.652;2024-01-27T10:03:55;2.40;;;1.20;;
69161;SDS011;56269;51.738;21.652;2024-01-27T10:06:24;6.85;;;1.90;;
69161;SDS011;56269;51.738;21.652;2024-01-27T10:08:54;4.45;;;1.90;;
69161;SDS011;56269;51.738;21.652;2024-01-27T10:11:21;2.90;;;1.15;;
69161;SDS011;56269;51.738;21.652;2024-01-27T10:13:57;6.07;;;1.60;;
69161;SDS011;56269;51.738;21.652;2024-01-27T10:16:28;2.97;;;1.37;;
69161;SDS011;56269;51.738;21.652;2024-01-27T10:19:03;1.98;;;0.98;;
69161;SDS011;56269;51.738;21.652;2024-01-27T10:21:30;2.20;;;1.30;;
69161;SDS011;56269;51.738;21.652;2024-01-27T10:23:56;2.42;;;1.00;;
69161;SDS011;56269;51.738;21.652;2024-01-27T10:26:23;1.58;;;0.90;;
69161;SDS011;56269;51.738;21.652;2024-01-27T10:28:55;1.50;;;0.80;;
69161;SDS011;56269;51.738;21.652;2024-01-27T10:31:28;3.50;;;1.02;;
69161;SDS011;56269;51.738;21.652;2024-01-27T10:33:56;2.42;;;0.98;;
69161;SDS011;56269;51.738;21.652;2024-01-27T10:36:23;4.38;;;1.48;;
69161;SDS011;56269;51.738;21.652;2024-01-27T10:38:50;3.92;;;1.52;;
69161;SDS011;56269;51.738;21.652;2024-01-27T10:41:23;4.30;;;1.40;;
69161;SDS011;56269;51.738;21.652;2024-01-27T10:43:51;6.07;;;2.00;;
69161;SDS011;56269;51.738;21.652;2024-01-27T10:46:20;6.35;;;1.90;;
69161;SDS011;56269;51.738;21.652;2024-01-27T10:48:50;5.93;;;1.65;;
69161;SDS011;56269;51.738;21.652;2024-01-27T10:51:29;7.03;;;2.28;;
69161;SDS011;56269;51.738;21.652;2024-01-27T10:54:06;4.37;;;1.73;;
69161;SDS011;56269;51.738;21.652;2024-01-27T10:56:36;2.92;;;1.00;;
69161;SDS011;56269;51.738;21.652;2024-01-27T10:59:04;1.65;;;0.90;;
69161;SDS011;56269;51.738;21.652;2024-01-27T11:01:32;2.42;;;1.15;;
69161;SDS011;56269;51.738;21.652;2024-01-27T11:04:00;2.10;;;0.90;;
69161;SDS011;56269;51.738;21.652;2024-01-27T11:06:29;2.63;;;1.27;;
69161;SDS011;56269;51.738;21.652;2024-01-27T11:08:56;2.05;;;1.00;;
69161;SDS011;56269;51.738;21.652;2024-01-27T11:11:25;6.72;;;1.33;;
69161;SDS011;56269;51.738;21.652;2024-01-27T11:13:51;6.32;;;1.33;;
69161;SDS011;56269;51.738;21.652;2024-01-27T11:16:18;2.00;;;1.05;;
69161;SDS011;56269;51.738;21.652;2024-01-27T11:18:44;8.13;;;2.07;;
69161;SDS011;56269;51.738;21.652;2024-01-27T11:21:14;2.10;;;1.10;;
69161;SDS011;56269;51.738;21.652;2024-01-27T11:23:41;1.67;;;0.88;;
69161;SDS011;56269;51.738;21.652;2024-01-27T11:26:09;5.78;;;1.65;;
69161;SDS011;56269;51.738;21.652;2024-01-27T11:28:35;2.08;;;0.95;;
69161;SDS011;56269;51.738;21.652;2024-01-27T11:31:07;2.40;;;1.10;;
69161;SDS011;56269;51.738;21.652;2024-01-27T11:33:40;2.35;;;1.38;;
69161;SDS011;56269;51.738;21.652;2024-01-27T11:36:08;2.13;;;1.10;;
69161;SDS011;56269;51.738;21.652;2024-01-27T11:38:43;4.75;;;1.83;;
69161;SDS011;56269;51.738;21.652;2024-01-27T11:41:09;4.13;;;1.92;;
69161;SDS011;56269;51.738;21.652;2024-01-27T11:43:35;0.93;;;0.67;;
69161;SDS011;56269;51.738;21.652;2024-01-27T11:46:01;1.33;;;0.93;;
69161;SDS011;56269;51.738;21.652;2024-01-27T11:48:27;1.25;;;0.70;;
69161;SDS011;56269;51.738;21.652;2024-01-27T11:51:03;3.92;;;1.33;;
69161;SDS011;56269;51.738;21.652;2024-01-27T11:53:36;3.40;;;1.60;;
69161;SDS011;56269;51.738;21.652;2024-01-27T11:56:03;5.77;;;1.83;;
69161;SDS011;56269;51.738;21.652;2024-01-27T11:58:30;3.88;;;1.83;;
69161;SDS011;56269;51.738;21.652;2024-01-27T12:00:57;4.25;;;1.50;;
69161;SDS011;56269;51.738;21.652;2024-01-27T12:03:26;4.25;;;1.45;;
69161;SDS011;56269;51.738;21.652;2024-01-27T12:05:53;5.82;;;1.05;;
69161;SDS011;56269;51.738;21.652;2024-01-27T12:08:19;5.00;;;1.33;;
69161;SDS011;56269;51.738;21.652;2024-01-27T12:10:46;3.13;;;1.33;;
69161;SDS011;56269;51.738;21.652;2024-01-27T12:13:12;4.38;;;1.65;;
69161;SDS011;56269;51.738;21.652;2024-01-27T12:15:38;1.95;;;0.90;;
69161;SDS011;56269;51.738;21.652;2024-01-27T12:18:04;4.03;;;1.35;;
69161;SDS011;56269;51.738;21.652;2024-01-27T12:20:31;3.57;;;1.17;;
69161;SDS011;56269;51.738;21.652;2024-01-27T12:23:04;3.75;;;1.75;;
69161;SDS011;56269;51.738;21.652;2024-01-27T12:25:31;2.20;;;0.98;;
69161;SDS011;56269;51.738;21.652;2024-01-27T12:28:01;2.33;;;1.20;;
69161;SDS011;56269;51.738;21.652;2024-01-27T12:30:33;5.70;;;2.08;;
69161;SDS011;56269;51.738;21.652;2024-01-27T12:33:01;3.80;;;1.27;;
69161;SDS011;56269;51.738;21.652;2024-01-27T12:35:34;6.80;;;2.20;;
69161;SDS011;56269;51.738;21.652;2024-01-27T12:38:00;3.40;;;1.52;;
69161;SDS011;56269;51.738;21.652;2024-01-27T12:40:27;4.13;;;1.38;;
69161;SDS011;56269;51.738;21.652;2024-01-27T12:42:54;4.07;;;1.58;;
69161;SDS011;56269;51.738;21.652;2024-01-27T12:45:21;12.17;;;2.90;;
69161;SDS011;56269;51.738;21.652;2024-01-27T12:47:47;3.33;;;1.60;;
69161;SDS011;56269;51.738;21.652;2024-01-27T12:50:14;4.07;;;1.50;;
69161;SDS011;56269;51.738;21.652;2024-01-27T12:52:40;5.13;;;2.20;;
69161;SDS011;56269;51.738;21.652;2024-01-27T12:55:07;6.13;;;1.90;;
69161;SDS011;56269;51.738;21.652;2024-01-27T12:57:33;4.82;;;1.95;;
69161;SDS011;56269;51.738;21.652;2024-01-27T13:00:00;3.03;;;1.20;;
69161;SDS011;56269;51.738;21.652;2024-01-27T13:02:29;2.60;;;0.98;;
69161;SDS011;56269;51.738;21.652;2024-01-27T13:04:55;4.10;;;1.60;;
69161;SDS011;56269;51.738;21.652;2024-01-27T13:07:21;4.67;;;1.63;;
69161;SDS011;56269;51.738;21.652;2024-01-27T13:09:48;6.50;;;2.55;;
69161;SDS011;56269;51.738;21.652;2024-01-27T13:12:14;3.20;;;1.40;;
69161;SDS011;56269;51.738;21.652;2024-01-27T13:14:40;3.75;;;1.65;;
69161;SDS011;56269;51.738;21.652;2024-01-27T13:17:07;1.92;;;0.98;;
69161;SDS011;56269;51.738;21.652;2024-01-27T13:19:34;5.33;;;2.57;;
69161;SDS011;56269;51.738;21.652;2024-01-27T13:21:59;2.80;;;1.35;;
69161;SDS011;56269;51.738;21.652;2024-01-27T13:24:26;4.70;;;1.80;;
69161;SDS011;56269;51.738;21.652;2024-01-27T13:26:52;4.38;;;1.70;;
69161;SDS011;56269;51.738;21.652;2024-01-27T13:29:18;4.40;;;1.77;;
69161;SDS011;56269;51.738;21.652;2024-01-27T13:31:45;3.33;;;1.52;;
69161;SDS011;56269;51.738;21.652;2024-01-27T13:34:13;3.35;;;1.13;;
69161;SDS011;56269;51.738;21.652;2024-01-27T13:36:39;2.90;;;1.25;;
69161;SDS011;56269;51.738;21.652;2024-01-27T13:39:06;3.47;;;1.80;;
69161;SDS011;56269;51.738;21.652;2024-01-27T13:41:32;4.40;;;1.83;;
69161;SDS011;56269;51.738;21.652;2024-01-27T13:43:58;7.47;;;2.92;;
69161;SDS011;56269;51.738;21.652;2024-01-27T13:46:24;5.35;;;1.88;;
69161;SDS011;56269;51.738;21.652;2024-01-27T13:48:50;3.85;;;2.35;;
69161;SDS011;56269;51.738;21.652;2024-01-27T13:51:16;7.37;;;3.23;;
69161;SDS011;56269;51.738;21.652;2024-01-27T13:53:43;5.68;;;2.53;;
69161;SDS011;56269;51.738;21.652;2024-01-27T13:56:09;5.47;;;2.33;;
69161;SDS011;56269;51.738;21.652;2024-01-27T13:58:35;7.07;;;2.88;;
69161;SDS011;56269;51.738;21.652;2024-01-27T14:01:02;6.25;;;3.08;;
69161;SDS011;56269;51.738;21.652;2024-01-27T14:03:29;6.90;;;2.80;;
69161;SDS011;56269;51.738;21.652;2024-01-27T14:05:55;4.40;;;2.42;;
69161;SDS011;56269;51.738;21.652;2024-01-27T14:08:22;6.45;;;2.97;;
69161;SDS011;56269;51.738;21.652;2024-01-27T14:10:48;4.20;;;1.77;;
69161;SDS011;56269;51.738;21.652;2024-01-27T14:13:16;3.67;;;1.40;;
69161;SDS011;56269;51.738;21.652;2024-01-27T14:15:42;5.40;;;2.13;;
69161;SDS011;56269;51.738;21.652;2024-01-27T14:18:08;5.53;;;2.75;;
69161;SDS011;56269;51.738;21.652;2024-01-27T14:20:36;6.53;;;3.10;;
69161;SDS011;56269;51.738;21.652;2024-01-27T14:23:03;5.50;;;1.90;;
69161;SDS011;56269;51.738;21.652;2024-01-27T14:25:29;3.47;;;1.90;;
69161;SDS011;56269;51.738;21.652;2024-01-27T14:27:56;6.82;;;1.92;;
69161;SDS011;56269;51.738;21.652;2024-01-27T14:30:22;8.60;;;3.45;;
69161;SDS011;56269;51.738;21.652;2024-01-27T14:32:48;5.70;;;3.03;;